sensor_id;sensor_type;location;lat;lon;timestamp;pressure;altitude;pressure_sealevel;temperature;humidity
62952;BME280;52163;52.212;-1.002;2023-03-23T00:01:57;98309.86;;;8.32;93.41
62952;BME280;52163;52.212;-1.002;2023-03-23T00:04:23;98308.05;;;8.28;93.04
62952;BME280;52163;52.212;-1.002;2023-03-23T00:06:52;98307.45;;;8.25;93.49
62952;BME280;52163;52.212;-1.002;2023-03-23T00:09:17;98306.94;;;8.21;93.39
62952;BME280;52163;52.212;-1.002;2023-03-23T00:11:49;98301.36;;;8.16;93.55
62952;BME280;52163;52.212;-1.002;2023-03-23T00:14:16;98306.00;;;8.13;93.71
62952;BME280;52163;52.212;-1.002;2023-03-23T00:16:41;98309.82;;;8.09;94.06
62952;BME280;52163;52.212;-1.002;2023-03-23T00:19:11;98325.92;;;8.10;94.26
62952;BME280;52163;52.212;-1.002;2023-03-23T00:21:40;98324.13;;;8.13;94.10
62952;BME280;52163;52.212;-1.002;2023-03-23T00:24:14;98325.23;;;8.17;94.10
62952;BME280;52163;52.212;-1.002;2023-03-23T00:26:47;98326.27;;;8.21;94.22
62952;BME280;52163;52.212;-1.002;2023-03-23T00:29:16;98325.46;;;8.26;94.17
62952;BME280;52163;52.212;-1.002;2023-03-23T00:31:43;98329.77;;;8.30;93.58
62952;BME280;52163;52.212;-1.002;2023-03-23T00:34:14;98344.27;;;8.31;93.24
62952;BME280;52163;52.212;-1.002;2023-03-23T00:36:45;98345.16;;;8.32;93.09
62952;BME280;52163;52.212;-1.002;2023-03-23T00:39:12;98350.14;;;8.34;92.62
62952;BME280;52163;52.212;-1.002;2023-03-23T00:41:37;98350.64;;;8.32;92.47
62952;BME280;52163;52.212;-1.002;2023-03-23T00:44:04;98349.45;;;8.30;92.46
62952;BME280;52163;52.212;-1.002;2023-03-23T00:46:29;98351.06;;;8.27;92.24
62952;BME280;52163;52.212;-1.002;2023-03-23T00:48:56;98350.05;;;8.25;92.01
62952;BME280;52163;52.212;-1.002;2023-03-23T00:51:23;98349.86;;;8.21;91.86
62952;BME280;52163;52.212;-1.002;2023-03-23T00:53:49;98349.02;;;8.16;91.47
62952;BME280;52163;52.212;-1.002;2023-03-23T00:56:15;98348.80;;;8.10;91.28
62952;BME280;52163;52.212;-1.002;2023-03-23T00:58:41;98349.80;;;8.05;90.70
62952;BME280;52163;52.212;-1.002;2023-03-23T01:01:07;98355.34;;;8.02;90.27
62952;BME280;52163;52.212;-1.002;2023-03-23T01:03:33;98361.55;;;7.98;89.85
62952;BME280;52163;52.212;-1.002;2023-03-23T01:06:08;98361.77;;;7.96;89.82
62952;BME280;52163;52.212;-1.002;2023-03-23T01:08:41;98365.10;;;7.94;89.35
62952;BME280;52163;52.212;-1.002;2023-03-23T01:11:15;98376.05;;;7.91;89.01
62952;BME280;52163;52.212;-1.002;2023-03-23T01:13:42;98385.48;;;7.88;89.08
62952;BME280;52163;52.212;-1.002;2023-03-23T01:16:09;98384.93;;;7.83;88.97
62952;BME280;52163;52.212;-1.002;2023-03-23T01:18:35;98393.53;;;7.79;89.11
62952;BME280;52163;52.212;-1.002;2023-03-23T01:21:06;98397.86;;;7.76;88.85
62952;BME280;52163;52.212;-1.002;2023-03-23T01:23:33;98404.19;;;7.74;88.87
62952;BME280;52163;52.212;-1.002;2023-03-23T01:26:12;98409.05;;;7.73;88.81
62952;BME280;52163;52.212;-1.002;2023-03-23T01:28:38;98411.68;;;7.70;88.52
62952;BME280;52163;52.212;-1.002;2023-03-23T01:31:08;98414.30;;;7.68;88.33
62952;BME280;52163;52.212;-1.002;2023-03-23T01:33:34;98418.52;;;7.66;88.07
62952;BME280;52163;52.212;-1.002;2023-03-23T01:36:04;98419.63;;;7.64;87.85
62952;BME280;52163;52.212;-1.002;2023-03-23T01:38:31;98421.34;;;7.60;87.69
62952;BME280;52163;52.212;-1.002;2023-03-23T01:40:56;98422.16;;;7.56;87.40
62952;BME280;52163;52.212;-1.002;2023-03-23T01:43:22;98421.59;;;7.54;87.43
62952;BME280;52163;52.212;-1.002;2023-03-23T01:45:47;98423.18;;;7.52;87.24
62952;BME280;52163;52.212;-1.002;2023-03-23T01:48:20;98431.36;;;7.51;87.39
62952;BME280;52163;52.212;-1.002;2023-03-23T01:50:54;98432.64;;;7.48;87.30
62952;BME280;52163;52.212;-1.002;2023-03-23T01:53:22;98440.56;;;7.45;87.32
62952;BME280;52163;52.212;-1.002;2023-03-23T01:55:52;98437.45;;;7.42;87.08
62952;BME280;52163;52.212;-1.002;2023-03-23T01:58:26;98439.69;;;7.38;86.93
62952;BME280;52163;52.212;-1.002;2023-03-23T02:00:57;98446.57;;;7.36;87.13
62952;BME280;52163;52.212;-1.002;2023-03-23T02:03:28;98445.67;;;7.34;87.23
62952;BME280;52163;52.212;-1.002;2023-03-23T02:05:56;98450.52;;;7.33;87.38
62952;BME280;52163;52.212;-1.002;2023-03-23T02:08:24;98450.89;;;7.31;87.46
62952;BME280;52163;52.212;-1.002;2023-03-23T02:10:54;98451.31;;;7.27;87.95
62952;BME280;52163;52.212;-1.002;2023-03-23T02:13:19;98454.48;;;7.25;87.97
62952;BME280;52163;52.212;-1.002;2023-03-23T02:15:51;98458.11;;;7.21;88.20
62952;BME280;52163;52.212;-1.002;2023-03-23T02:27:02;98472.33;;;7.05;89.30
62952;BME280;52163;52.212;-1.002;2023-03-23T02:32:21;98471.06;;;7.06;89.92
62952;BME280;52163;52.212;-1.002;2023-03-23T02:34:58;98475.74;;;7.06;90.13
62952;BME280;52163;52.212;-1.002;2023-03-23T02:37:35;98479.93;;;7.04;90.17
62952;BME280;52163;52.212;-1.002;2023-03-23T02:42:36;98490.33;;;7.00;90.75
62952;BME280;52163;52.212;-1.002;2023-03-23T02:45:04;98491.97;;;6.96;91.13
62952;BME280;52163;52.212;-1.002;2023-03-23T02:47:31;98487.11;;;6.93;91.40
62952;BME280;52163;52.212;-1.002;2023-03-23T02:49:59;98493.09;;;6.91;91.79
62952;BME280;52163;52.212;-1.002;2023-03-23T02:52:29;98491.30;;;6.89;92.00
62952;BME280;52163;52.212;-1.002;2023-03-23T02:54:57;98495.89;;;6.89;92.37
62952;BME280;52163;52.212;-1.002;2023-03-23T02:57:27;98494.00;;;6.88;92.60
62952;BME280;52163;52.212;-1.002;2023-03-23T02:59:53;98492.32;;;6.87;92.86
62952;BME280;52163;52.212;-1.002;2023-03-23T03:02:28;98492.77;;;6.86;93.06
62952;BME280;52163;52.212;-1.002;2023-03-23T03:15:51;98492.71;;;6.68;94.00
62952;BME280;52163;52.212;-1.002;2023-03-23T03:18:22;98494.73;;;6.67;94.28
62952;BME280;52163;52.212;-1.002;2023-03-23T03:20:54;98497.20;;;6.64;94.36
62952;BME280;52163;52.212;-1.002;2023-03-23T03:23:22;98495.09;;;6.62;94.62
62952;BME280;52163;52.212;-1.002;2023-03-23T03:25:50;98497.43;;;6.59;94.54
62952;BME280;52163;52.212;-1.002;2023-03-23T03:28:18;98497.77;;;6.55;94.72
62952;BME280;52163;52.212;-1.002;2023-03-23T03:30:49;98495.27;;;6.50;94.96
62952;BME280;52163;52.212;-1.002;2023-03-23T03:33:15;98501.05;;;6.48;95.30
62952;BME280;52163;52.212;-1.002;2023-03-23T03:35:43;98499.81;;;6.46;95.43
62952;BME280;52163;52.212;-1.002;2023-03-23T03:38:11;98502.06;;;6.44;95.77
62952;BME280;52163;52.212;-1.002;2023-03-23T03:40:37;98502.08;;;6.44;95.94
62952;BME280;52163;52.212;-1.002;2023-03-23T03:43:04;98503.92;;;6.43;95.94
62952;BME280;52163;52.212;-1.002;2023-03-23T03:45:29;98506.61;;;6.39;95.92
62952;BME280;52163;52.212;-1.002;2023-03-23T03:47:55;98507.38;;;6.36;95.88
62952;BME280;52163;52.212;-1.002;2023-03-23T03:50:21;98507.76;;;6.34;95.85
62952;BME280;52163;52.212;-1.002;2023-03-23T03:52:46;98503.51;;;6.31;96.01
62952;BME280;52163;52.212;-1.002;2023-03-23T03:55:12;98498.02;;;6.30;96.06
62952;BME280;52163;52.212;-1.002;2023-03-23T03:57:38;98503.10;;;6.30;96.15
62952;BME280;52163;52.212;-1.002;2023-03-23T04:00:06;98496.70;;;6.29;95.92
62952;BME280;52163;52.212;-1.002;2023-03-23T04:02:46;98497.98;;;6.28;96.01
62952;BME280;52163;52.212;-1.002;2023-03-23T04:05:19;98492.52;;;6.26;96.02
62952;BME280;52163;52.212;-1.002;2023-03-23T04:07:45;98496.45;;;6.23;95.77
62952;BME280;52163;52.212;-1.002;2023-03-23T04:10:14;98495.33;;;6.19;95.74
62952;BME280;52163;52.212;-1.002;2023-03-23T04:12:40;98501.45;;;6.17;95.89
62952;BME280;52163;52.212;-1.002;2023-03-23T04:15:07;98502.45;;;6.15;95.88
62952;BME280;52163;52.212;-1.002;2023-03-23T04:17:34;98503.66;;;6.13;96.00
62952;BME280;52163;52.212;-1.002;2023-03-23T04:19:59;98507.23;;;6.13;96.21
62952;BME280;52163;52.212;-1.002;2023-03-23T04:22:27;98510.20;;;6.12;96.70
62952;BME280;52163;52.212;-1.002;2023-03-23T04:24:59;98511.26;;;6.12;96.89
62952;BME280;52163;52.212;-1.002;2023-03-23T04:27:27;98516.44;;;6.11;97.06
62952;BME280;52163;52.212;-1.002;2023-03-23T04:29:56;98516.30;;;6.08;97.24
62952;BME280;52163;52.212;-1.002;2023-03-23T04:32:23;98518.96;;;6.05;97.28
62952;BME280;52163;52.212;-1.002;2023-03-23T04:34:50;98523.25;;;6.04;97.44
62952;BME280;52163;52.212;-1.002;2023-03-23T04:37:15;98519.38;;;6.04;97.59
62952;BME280;52163;52.212;-1.002;2023-03-23T04:39:41;98518.96;;;6.05;97.84
62952;BME280;52163;52.212;-1.002;2023-03-23T04:42:10;98517.13;;;6.06;97.98
62952;BME280;52163;52.212;-1.002;2023-03-23T04:44:36;98520.09;;;6.06;97.91
62952;BME280;52163;52.212;-1.002;2023-03-23T04:47:02;98523.61;;;6.06;97.93
62952;BME280;52163;52.212;-1.002;2023-03-23T04:49:27;98523.19;;;6.05;97.87
62952;BME280;52163;52.212;-1.002;2023-03-23T04:51:55;98527.58;;;6.02;97.91
62952;BME280;52163;52.212;-1.002;2023-03-23T04:54:22;98530.20;;;6.00;97.95
62952;BME280;52163;52.212;-1.002;2023-03-23T04:56:47;98533.89;;;5.97;97.84
62952;BME280;52163;52.212;-1.002;2023-03-23T04:59:13;98537.45;;;5.93;97.87
62952;BME280;52163;52.212;-1.002;2023-03-23T05:01:40;98544.34;;;5.93;98.07
62952;BME280;52163;52.212;-1.002;2023-03-23T05:04:10;98548.59;;;5.92;98.02
62952;BME280;52163;52.212;-1.002;2023-03-23T05:06:35;98543.15;;;5.92;98.16
62952;BME280;52163;52.212;-1.002;2023-03-23T05:09:01;98546.68;;;5.92;98.19
62952;BME280;52163;52.212;-1.002;2023-03-23T05:11:26;98549.79;;;5.90;98.27
62952;BME280;52163;52.212;-1.002;2023-03-23T05:13:52;98545.36;;;5.89;98.22
62952;BME280;52163;52.212;-1.002;2023-03-23T05:16:17;98545.13;;;5.85;98.09
62952;BME280;52163;52.212;-1.002;2023-03-23T05:18:42;98549.14;;;5.82;98.19
62952;BME280;52163;52.212;-1.002;2023-03-23T05:21:09;98555.05;;;5.80;98.28
62952;BME280;52163;52.212;-1.002;2023-03-23T05:23:34;98558.58;;;5.80;98.44
62952;BME280;52163;52.212;-1.002;2023-03-23T05:26:00;98558.91;;;5.80;98.53
62952;BME280;52163;52.212;-1.002;2023-03-23T05:28:29;98556.77;;;5.81;98.69
62952;BME280;52163;52.212;-1.002;2023-03-23T05:30:56;98558.94;;;5.80;98.81
62952;BME280;52163;52.212;-1.002;2023-03-23T05:33:21;98554.23;;;5.79;98.62
62952;BME280;52163;52.212;-1.002;2023-03-23T05:35:47;98556.32;;;5.77;98.70
62952;BME280;52163;52.212;-1.002;2023-03-23T05:38:14;98552.66;;;5.74;98.62
62952;BME280;52163;52.212;-1.002;2023-03-23T05:40:40;98547.98;;;5.71;98.64
62952;BME280;52163;52.212;-1.002;2023-03-23T05:43:07;98549.55;;;5.69;98.81
62952;BME280;52163;52.212;-1.002;2023-03-23T05:45:33;98551.21;;;5.68;99.13
62952;BME280;52163;52.212;-1.002;2023-03-23T05:48:00;98547.79;;;5.66;99.38
62952;BME280;52163;52.212;-1.002;2023-03-23T05:50:26;98547.48;;;5.66;99.67
62952;BME280;52163;52.212;-1.002;2023-03-23T05:52:54;98547.29;;;5.66;99.89
62952;BME280;52163;52.212;-1.002;2023-03-23T05:55:19;98549.23;;;5.66;99.99
62952;BME280;52163;52.212;-1.002;2023-03-23T05:57:44;98546.46;;;5.65;100.00
62952;BME280;52163;52.212;-1.002;2023-03-23T06:00:10;98547.06;;;5.64;100.00
62952;BME280;52163;52.212;-1.002;2023-03-23T06:02:39;98541.91;;;5.63;100.00
62952;BME280;52163;52.212;-1.002;2023-03-23T06:05:05;98536.65;;;5.63;100.00
62952;BME280;52163;52.212;-1.002;2023-03-23T06:07:31;98532.90;;;5.64;100.00
62952;BME280;52163;52.212;-1.002;2023-03-23T06:09:57;98526.91;;;5.65;100.00
62952;BME280;52163;52.212;-1.002;2023-03-23T06:12:22;98522.17;;;5.66;100.00
62952;BME280;52163;52.212;-1.002;2023-03-23T06:14:49;98519.34;;;5.67;100.00
62952;BME280;52163;52.212;-1.002;2023-03-23T06:17:16;98517.05;;;5.67;100.00
62952;BME280;52163;52.212;-1.002;2023-03-23T06:19:42;98511.52;;;5.66;100.00
62952;BME280;52163;52.212;-1.002;2023-03-23T06:22:09;98517.64;;;5.67;100.00
62952;BME280;52163;52.212;-1.002;2023-03-23T06:24:35;98506.23;;;5.67;100.00
62952;BME280;52163;52.212;-1.002;2023-03-23T06:27:01;98509.80;;;5.69;100.00
62952;BME280;52163;52.212;-1.002;2023-03-23T06:29:26;98509.11;;;5.71;100.00
62952;BME280;52163;52.212;-1.002;2023-03-23T06:31:56;98510.45;;;5.74;100.00
62952;BME280;52163;52.212;-1.002;2023-03-23T06:34:24;98510.73;;;5.78;100.00
62952;BME280;52163;52.212;-1.002;2023-03-23T06:36:49;98510.70;;;5.80;100.00
62952;BME280;52163;52.212;-1.002;2023-03-23T06:39:15;98510.82;;;5.84;100.00
62952;BME280;52163;52.212;-1.002;2023-03-23T06:41:40;98513.99;;;5.86;100.00
62952;BME280;52163;52.212;-1.002;2023-03-23T06:44:07;98518.25;;;5.88;100.00
62952;BME280;52163;52.212;-1.002;2023-03-23T06:46:33;98516.30;;;5.90;100.00
62952;BME280;52163;52.212;-1.002;2023-03-23T06:48:59;98518.48;;;5.94;100.00
62952;BME280;52163;52.212;-1.002;2023-03-23T06:51:24;98515.20;;;5.98;100.00
62952;BME280;52163;52.212;-1.002;2023-03-23T06:53:50;98506.82;;;6.03;100.00
62952;BME280;52163;52.212;-1.002;2023-03-23T06:56:16;98507.14;;;6.08;100.00
62952;BME280;52163;52.212;-1.002;2023-03-23T06:58:41;98507.44;;;6.14;100.00
62952;BME280;52163;52.212;-1.002;2023-03-23T07:01:07;98513.36;;;6.19;100.00
62952;BME280;52163;52.212;-1.002;2023-03-23T07:03:33;98513.40;;;6.23;100.00
62952;BME280;52163;52.212;-1.002;2023-03-23T07:05:59;98511.52;;;6.28;100.00
62952;BME280;52163;52.212;-1.002;2023-03-23T07:08:25;98505.85;;;6.33;100.00
62952;BME280;52163;52.212;-1.002;2023-03-23T07:10:52;98507.33;;;6.39;100.00
62952;BME280;52163;52.212;-1.002;2023-03-23T07:13:18;98506.90;;;6.48;100.00
62952;BME280;52163;52.212;-1.002;2023-03-23T07:15:44;98504.83;;;6.59;100.00
62952;BME280;52163;52.212;-1.002;2023-03-23T07:18:10;98499.48;;;6.71;100.00
62952;BME280;52163;52.212;-1.002;2023-03-23T07:20:36;98492.84;;;6.83;100.00
62952;BME280;52163;52.212;-1.002;2023-03-23T07:23:02;98494.58;;;6.92;100.00
62952;BME280;52163;52.212;-1.002;2023-03-23T07:25:31;98485.55;;;7.00;100.00
62952;BME280;52163;52.212;-1.002;2023-03-23T07:27:58;98483.87;;;7.06;100.00
62952;BME280;52163;52.212;-1.002;2023-03-23T07:30:24;98480.28;;;7.12;100.00
62952;BME280;52163;52.212;-1.002;2023-03-23T07:32:49;98480.29;;;7.18;100.00
62952;BME280;52163;52.212;-1.002;2023-03-23T07:35:15;98486.68;;;7.26;100.00
62952;BME280;52163;52.212;-1.002;2023-03-23T07:37:41;98484.30;;;7.34;100.00
62952;BME280;52163;52.212;-1.002;2023-03-23T07:40:08;98486.08;;;7.43;100.00
62952;BME280;52163;52.212;-1.002;2023-03-23T07:42:33;98489.34;;;7.51;100.00
62952;BME280;52163;52.212;-1.002;2023-03-23T07:44:59;98488.80;;;7.58;100.00
62952;BME280;52163;52.212;-1.002;2023-03-23T07:47:24;98480.03;;;7.64;100.00
62952;BME280;52163;52.212;-1.002;2023-03-23T07:49:50;98479.67;;;7.71;100.00
62952;BME280;52163;52.212;-1.002;2023-03-23T07:52:15;98481.77;;;7.77;100.00
62952;BME280;52163;52.212;-1.002;2023-03-23T07:54:40;98474.58;;;7.86;100.00
62952;BME280;52163;52.212;-1.002;2023-03-23T07:57:06;98480.23;;;7.94;100.00
62952;BME280;52163;52.212;-1.002;2023-03-23T07:59:32;98482.02;;;8.03;100.00
62952;BME280;52163;52.212;-1.002;2023-03-23T08:01:57;98483.19;;;8.10;100.00
62952;BME280;52163;52.212;-1.002;2023-03-23T08:04:23;98483.42;;;8.18;100.00
62952;BME280;52163;52.212;-1.002;2023-03-23T08:06:48;98484.10;;;8.24;100.00
62952;BME280;52163;52.212;-1.002;2023-03-23T08:09:14;98483.30;;;8.32;100.00
62952;BME280;52163;52.212;-1.002;2023-03-23T08:11:40;98484.87;;;8.40;100.00
62952;BME280;52163;52.212;-1.002;2023-03-23T08:14:06;98489.44;;;8.50;100.00
62952;BME280;52163;52.212;-1.002;2023-03-23T08:16:32;98493.77;;;8.61;100.00
62952;BME280;52163;52.212;-1.002;2023-03-23T08:18:58;98498.81;;;8.73;100.00
62952;BME280;52163;52.212;-1.002;2023-03-23T08:21:23;98494.66;;;8.82;100.00
62952;BME280;52163;52.212;-1.002;2023-03-23T08:23:49;98490.40;;;8.91;99.94
62952;BME280;52163;52.212;-1.002;2023-03-23T08:26:15;98491.51;;;8.98;99.50
62952;BME280;52163;52.212;-1.002;2023-03-23T08:28:41;98495.09;;;9.06;99.19
62952;BME280;52163;52.212;-1.002;2023-03-23T08:31:10;98494.09;;;9.14;98.75
62952;BME280;52163;52.212;-1.002;2023-03-23T08:33:37;98488.17;;;9.23;98.68
62952;BME280;52163;52.212;-1.002;2023-03-23T08:36:03;98485.26;;;9.34;98.13
62952;BME280;52163;52.212;-1.002;2023-03-23T08:38:30;98480.35;;;9.46;98.04
62952;BME280;52163;52.212;-1.002;2023-03-23T08:41:04;98482.59;;;9.67;97.63
62952;BME280;52163;52.212;-1.002;2023-03-23T08:43:32;98484.01;;;9.99;96.75
62952;BME280;52163;52.212;-1.002;2023-03-23T08:45:58;98490.92;;;10.22;95.62
62952;BME280;52163;52.212;-1.002;2023-03-23T08:48:24;98489.85;;;10.40;94.98
62952;BME280;52163;52.212;-1.002;2023-03-23T08:50:50;98489.48;;;10.56;94.02
62952;BME280;52163;52.212;-1.002;2023-03-23T08:53:18;98486.32;;;10.73;93.49
62952;BME280;52163;52.212;-1.002;2023-03-23T08:55:43;98484.14;;;10.85;92.90
62952;BME280;52163;52.212;-1.002;2023-03-23T08:58:09;98488.30;;;10.84;91.83
62952;BME280;52163;52.212;-1.002;2023-03-23T09:00:35;98489.89;;;10.80;91.11
62952;BME280;52163;52.212;-1.002;2023-03-23T09:03:01;98482.46;;;10.77;90.54
62952;BME280;52163;52.212;-1.002;2023-03-23T09:05:27;98485.88;;;10.74;90.06
62952;BME280;52163;52.212;-1.002;2023-03-23T09:07:56;98482.64;;;10.70;89.20
62952;BME280;52163;52.212;-1.002;2023-03-23T09:10:27;98488.42;;;10.67;88.89
62952;BME280;52163;52.212;-1.002;2023-03-23T09:12:55;98484.06;;;10.69;88.47
62952;BME280;52163;52.212;-1.002;2023-03-23T09:15:22;98495.52;;;10.78;87.89
62952;BME280;52163;52.212;-1.002;2023-03-23T09:17:50;98499.14;;;11.04;87.39
62952;BME280;52163;52.212;-1.002;2023-03-23T09:20:18;98495.17;;;11.29;86.43
62952;BME280;52163;52.212;-1.002;2023-03-23T09:22:48;98491.53;;;11.57;85.75
62952;BME280;52163;52.212;-1.002;2023-03-23T09:25:17;98496.94;;;11.76;85.08
62952;BME280;52163;52.212;-1.002;2023-03-23T09:27:50;98497.81;;;11.85;84.00
62952;BME280;52163;52.212;-1.002;2023-03-23T09:30:19;98490.73;;;11.95;83.24
62952;BME280;52163;52.212;-1.002;2023-03-23T09:32:46;98494.03;;;11.99;82.32
62952;BME280;52163;52.212;-1.002;2023-03-23T09:35:13;98497.09;;;11.93;81.99
62952;BME280;52163;52.212;-1.002;2023-03-23T09:37:42;98502.98;;;11.88;81.75
62952;BME280;52163;52.212;-1.002;2023-03-23T09:40:15;98493.69;;;11.95;81.02
62952;BME280;52163;52.212;-1.002;2023-03-23T09:48:41;98498.38;;;12.43;78.81
62952;BME280;52163;52.212;-1.002;2023-03-23T09:53:47;98508.77;;;12.63;76.90
62952;BME280;52163;52.212;-1.002;2023-03-23T09:56:16;98511.08;;;12.72;76.57
62952;BME280;52163;52.212;-1.002;2023-03-23T10:03:41;98514.69;;;12.88;75.59
62952;BME280;52163;52.212;-1.002;2023-03-23T10:06:11;98511.47;;;12.89;75.47
62952;BME280;52163;52.212;-1.002;2023-03-23T10:08:43;98507.82;;;13.08;75.59
62952;BME280;52163;52.212;-1.002;2023-03-23T10:16:31;98504.11;;;12.83;74.83
62952;BME280;52163;52.212;-1.002;2023-03-23T10:21:50;98515.91;;;12.88;74.50
62952;BME280;52163;52.212;-1.002;2023-03-23T10:24:21;98519.45;;;12.90;74.02
62952;BME280;52163;52.212;-1.002;2023-03-23T10:27:25;98516.33;;;12.80;74.22
62952;BME280;52163;52.212;-1.002;2023-03-23T10:30:13;98522.44;;;12.58;74.48
62952;BME280;52163;52.212;-1.002;2023-03-23T10:32:56;98519.77;;;12.44;75.02
62952;BME280;52163;52.212;-1.002;2023-03-23T10:35:28;98510.52;;;12.44;75.45
62952;BME280;52163;52.212;-1.002;2023-03-23T10:38:00;98511.84;;;12.61;75.32
62952;BME280;52163;52.212;-1.002;2023-03-23T10:40:28;98515.94;;;12.77;75.29
62952;BME280;52163;52.212;-1.002;2023-03-23T10:42:56;98519.04;;;12.83;74.66
62952;BME280;52163;52.212;-1.002;2023-03-23T10:45:28;98515.73;;;12.79;74.15
62952;BME280;52163;52.212;-1.002;2023-03-23T10:48:19;98521.40;;;12.75;73.85
62952;BME280;52163;52.212;-1.002;2023-03-23T10:50:57;98524.66;;;12.67;73.75
62952;BME280;52163;52.212;-1.002;2023-03-23T10:53:32;98519.77;;;12.55;73.74
62952;BME280;52163;52.212;-1.002;2023-03-23T10:55:59;98526.69;;;12.48;73.98
62952;BME280;52163;52.212;-1.002;2023-03-23T10:58:30;98528.20;;;12.57;74.41
62952;BME280;52163;52.212;-1.002;2023-03-23T11:00:58;98523.05;;;12.80;74.69
62952;BME280;52163;52.212;-1.002;2023-03-23T11:03:40;98518.59;;;13.09;74.35
62952;BME280;52163;52.212;-1.002;2023-03-23T11:06:11;98512.41;;;13.34;73.66
62952;BME280;52163;52.212;-1.002;2023-03-23T11:08:56;98505.45;;;13.61;73.11
62952;BME280;52163;52.212;-1.002;2023-03-23T11:11:29;98505.63;;;13.88;71.83
62952;BME280;52163;52.212;-1.002;2023-03-23T11:14:28;98507.30;;;14.14;70.85
62952;BME280;52163;52.212;-1.002;2023-03-23T11:16:56;98498.70;;;14.48;70.21
62952;BME280;52163;52.212;-1.002;2023-03-23T11:19:29;98497.98;;;14.57;69.16
62952;BME280;52163;52.212;-1.002;2023-03-23T11:24:35;98505.65;;;14.51;68.05
62952;BME280;52163;52.212;-1.002;2023-03-23T11:27:03;98510.74;;;14.39;68.21
62952;BME280;52163;52.212;-1.002;2023-03-23T11:29:33;98507.75;;;14.37;68.54
62952;BME280;52163;52.212;-1.002;2023-03-23T11:34:30;98497.43;;;14.82;68.70
62952;BME280;52163;52.212;-1.002;2023-03-23T11:37:09;98497.56;;;14.96;68.09
62952;BME280;52163;52.212;-1.002;2023-03-23T11:39:48;98488.79;;;15.29;68.18
62952;BME280;52163;52.212;-1.002;2023-03-23T11:42:37;98486.16;;;15.53;66.85
62952;BME280;52163;52.212;-1.002;2023-03-23T11:45:34;98490.36;;;15.71;65.74
62952;BME280;52163;52.212;-1.002;2023-03-23T11:48:20;98493.40;;;15.83;64.65
62952;BME280;52163;52.212;-1.002;2023-03-23T11:50:54;98490.92;;;16.01;64.32
62952;BME280;52163;52.212;-1.002;2023-03-23T11:53:22;98496.81;;;16.05;63.27
62952;BME280;52163;52.212;-1.002;2023-03-23T11:56:12;98497.25;;;16.08;62.98
62952;BME280;52163;52.212;-1.002;2023-03-23T11:58:38;98506.08;;;16.10;62.60
62952;BME280;52163;52.212;-1.002;2023-03-23T12:01:40;98497.66;;;16.18;62.39
62952;BME280;52163;52.212;-1.002;2023-03-23T12:18:05;98482.98;;;16.23;60.09
62952;BME280;52163;52.212;-1.002;2023-03-23T12:26:31;98492.36;;;16.21;59.38
62952;BME280;52163;52.212;-1.002;2023-03-23T12:34:40;98477.67;;;16.28;59.14
62952;BME280;52163;52.212;-1.002;2023-03-23T12:42:41;98477.23;;;15.75;59.52
62952;BME280;52163;52.212;-1.002;2023-03-23T12:48:01;98471.95;;;15.29;60.95
62952;BME280;52163;52.212;-1.002;2023-03-23T12:50:42;98469.80;;;15.27;61.28
62952;BME280;52163;52.212;-1.002;2023-03-23T12:53:40;98469.14;;;15.42;61.50
62952;BME280;52163;52.212;-1.002;2023-03-23T12:56:26;98465.00;;;15.50;61.58
62952;BME280;52163;52.212;-1.002;2023-03-23T13:01:36;98463.34;;;15.31;61.72
62952;BME280;52163;52.212;-1.002;2023-03-23T13:04:17;98466.45;;;15.17;61.33
62952;BME280;52163;52.212;-1.002;2023-03-23T13:06:46;98465.45;;;15.02;61.85
62952;BME280;52163;52.212;-1.002;2023-03-23T13:11:55;98452.04;;;14.82;62.69
62952;BME280;52163;52.212;-1.002;2023-03-23T13:17:10;98473.41;;;14.50;63.09
62952;BME280;52163;52.212;-1.002;2023-03-23T13:19:59;98468.56;;;14.34;64.28
62952;BME280;52163;52.212;-1.002;2023-03-23T13:22:33;98459.66;;;14.20;64.99
62952;BME280;52163;52.212;-1.002;2023-03-23T13:25:10;98468.75;;;14.08;65.78
62952;BME280;52163;52.212;-1.002;2023-03-23T13:27:38;98463.02;;;14.02;67.06
62952;BME280;52163;52.212;-1.002;2023-03-23T13:30:04;98465.69;;;14.02;68.69
62952;BME280;52163;52.212;-1.002;2023-03-23T13:32:42;98451.95;;;14.21;69.26
62952;BME280;52163;52.212;-1.002;2023-03-23T13:35:16;98454.33;;;14.21;70.09
62952;BME280;52163;52.212;-1.002;2023-03-23T13:37:47;98444.31;;;14.14;70.16
62952;BME280;52163;52.212;-1.002;2023-03-23T13:40:24;98441.55;;;14.10;70.14
62952;BME280;52163;52.212;-1.002;2023-03-23T13:42:56;98426.37;;;14.32;70.53
62952;BME280;52163;52.212;-1.002;2023-03-23T13:50:53;98430.31;;;15.43;69.05
62952;BME280;52163;52.212;-1.002;2023-03-23T13:53:35;98423.92;;;15.56;67.46
62952;BME280;52163;52.212;-1.002;2023-03-23T13:56:39;98420.08;;;15.47;66.23
62952;BME280;52163;52.212;-1.002;2023-03-23T13:59:27;98429.13;;;15.49;65.83
62952;BME280;52163;52.212;-1.002;2023-03-23T14:01:55;98435.05;;;15.52;65.36
62952;BME280;52163;52.212;-1.002;2023-03-23T14:04:23;98435.11;;;15.44;65.03
62952;BME280;52163;52.212;-1.002;2023-03-23T14:06:50;98441.36;;;15.38;65.05
62952;BME280;52163;52.212;-1.002;2023-03-23T14:09:36;98436.95;;;15.40;65.22
62952;BME280;52163;52.212;-1.002;2023-03-23T14:12:14;98432.89;;;15.37;65.11
62952;BME280;52163;52.212;-1.002;2023-03-23T14:14:44;98430.27;;;15.28;65.12
62952;BME280;52163;52.212;-1.002;2023-03-23T14:17:17;98417.66;;;15.25;64.97
62952;BME280;52163;52.212;-1.002;2023-03-23T14:19:52;98415.58;;;15.27;64.92
62952;BME280;52163;52.212;-1.002;2023-03-23T14:22:38;98409.52;;;15.32;64.57
62952;BME280;52163;52.212;-1.002;2023-03-23T14:25:17;98413.46;;;15.24;64.21
62952;BME280;52163;52.212;-1.002;2023-03-23T14:27:44;98408.02;;;15.09;63.69
62952;BME280;52163;52.212;-1.002;2023-03-23T14:30:24;98417.54;;;14.97;63.62
62952;BME280;52163;52.212;-1.002;2023-03-23T14:33:01;98412.15;;;14.97;63.78
62952;BME280;52163;52.212;-1.002;2023-03-23T14:35:31;98406.88;;;15.19;63.42
62952;BME280;52163;52.212;-1.002;2023-03-23T14:37:57;98394.92;;;15.35;63.13
62952;BME280;52163;52.212;-1.002;2023-03-23T14:40:26;98392.67;;;15.33;62.33
62952;BME280;52163;52.212;-1.002;2023-03-23T14:42:53;98397.70;;;15.20;62.40
62952;BME280;52163;52.212;-1.002;2023-03-23T14:45:21;98386.69;;;15.03;62.69
62952;BME280;52163;52.212;-1.002;2023-03-23T14:47:51;98382.47;;;14.97;62.67